East Middlebury, Vermont
Current Conditions -  °F | °C
As of 11:15 PM on Tuesday 27 Jan 2015 (Local Time) from K6B0 Reporting Station
Light Snow Light Snow  
Wind Chill: -5°   Ceiling: 2700
Heat Index:   Visibility: 3mi
Dew Point:   Wind: 9mph
Humidity: 81%   Direction: 340°NNW
Pressure: 29.88"   Gusts: NA
Location:  43.97°N, 73.11°W
Report Text: K6B0 280415Z AUTO 34008KT 3SM -SN OVC027 M13/M16 A2988 RMK AO2 T11301157
Loading
Personal Weather Stations






























Interactive Weather Map New forecast layout! Learn more

10-Day Weather Forecast

Advertisements
Track Severe Weather on mobile